• Join FlightAware (Why Join?)
  • Login
  • US Flag 
05:01AM EDT


 

Airport Tracker/Info


-or-


 

Live Flight TrackerFlight Track Log ✈ GJS3618 ✈ 21-Aug-2013 ✈ KORD - KBZN

Flight Track Log - Related Links

Times and Time Zones

All times are in EDT time to prevent confusion due to time zone crossing. See the GJS3618 flight status page for this flight to view local times or setup timezone preferences in your user account.

Time Position Orientation Groundspeed Altitude Reporting Facility
EDT Latitude Longitude Course Direction KTS MPH feet Rate Location/Type
12:37AM 42.0167 -87.9667 294° West 166 191 2,100  Level Chicago TRACON
12:38AM 42.0333 -88.0167 294° West 210 242 3,700 1,800 Climbing Chicago TRACON
12:40AM 42.1156 -88.1831 304° West 280 322 8,000 1,980 Climbing Chicago Center
12:41AM 42.1881 -88.1408 23° Northeast 286 329 10,300 2,340 Climbing Chicago Center
12:42AM 42.2586 -88.0881 29° Northeast 289 333 12,800 2,160 Climbing Chicago Center
12:43AM 42.3383 -88.0825 North 291 335 14,700 1,560 Climbing Chicago Center
12:44AM 42.4247 -88.1044 349° North 313 360 16,000 1,260 Climbing Chicago Center
12:45AM 42.5217 -88.1297 349° North 349 402 17,300 1,380 Climbing Chicago Center
12:46AM 42.6394 -88.1594 349° North 366 421 18,900 1,560 Climbing Chicago Center
12:47AM 42.7419 -88.1858 349° North 374 430 20,500 1,500 Climbing Chicago Center
12:48AM 42.8456 -88.2125 349° North 378 435 21,900 1,320 Climbing Chicago Center
12:49AM 42.9494 -88.2397 349° North 381 438 23,200 1,140 Climbing Chicago Center
12:50AM 43.0481 -88.2931 338° Northwest 396 456 24,200 1,020 Climbing Chicago Center
12:51AM 43.0886 -88.4322 292° West 398 458 25,300 1,080 Climbing Chicago Center
12:52AM 43.1219 -88.5764 288° West 394 453 26,400 1,020 Climbing Chicago Center
12:53AM 43.1561 -88.7231 288° West 399 459 27,400 840 Climbing Chicago Center
12:54AM 43.1844 -88.8447 288° West 400 460 28,100 720 Climbing Chicago Center
12:55AM 43.2194 -88.9947 288° West 407 468 28,900 780 Climbing Chicago Center
12:56AM 43.2539 -89.1450 288° West 411 473 29,700 780 Climbing Chicago Center
12:57AM 43.2881 -89.2947 287° West 410 472 30,500 780 Climbing Chicago Center
12:58AM 43.3222 -89.4472 287° West 415 478 31,300 780 Climbing Chicago Center
12:59AM 43.3547 -89.5981 287° West 412 474 32,100 780 Climbing Chicago Center
01:00AM 43.3878 -89.7478 287° West 410 472 32,900 900 Climbing Chicago Center
01:01AM 43.4197 -89.8956 287° West 405 466 33,900 900 Climbing Chicago Center
01:02AM 43.4511 -90.0414 287° West 398 458 34,800 840 Climbing Chicago Center
01:03AM 43.4825 -90.1847 287° West 392 451 35,600 660 Climbing Chicago Center
01:04AM 43.5153 -90.3414 286° West 387 445 36,200 540 Climbing Chicago Center
01:05AM 43.5453 -90.4831 286° West 390 449 36,700 420 Climbing Chicago Center
01:06AM 43.5758 -90.6239 287° West 389 448 37,100 240 Climbing Chicago Center
01:07AM 43.6064 -90.7675 286° West 394 453 37,300 240 Climbing Chicago Center
01:08AM 43.6311 -90.8831 287° West 400 460 37,600 360 Climbing Minneapolis Center
01:09AM 43.6614 -91.0292 286° West 401 461 38,000 180 Climbing Minneapolis Center
01:10AM 43.6919 -91.1739 286° West 400 460 38,000  Level Minneapolis Center
01:11AM 43.7208 -91.3231 285° West 404 465 38,000  Level Minneapolis Center
01:12AM 43.7572 -91.5014 286° West 406 467 38,000  Level Minneapolis Center
01:13AM 43.7875 -91.6519 286° West 409 471 38,000  Level Minneapolis Center
01:14AM 43.8150 -91.7953 285° West 407 468 38,000  Level Minneapolis Center
01:15AM 43.8444 -91.9456 285° West 405 466 38,000  Level Minneapolis Center
01:16AM 43.8731 -92.0914 285° West 397 457 38,000  Level Minneapolis Center
01:17AM 43.8997 -92.2367 284° West 391 450 38,000  Level Minneapolis Center
01:18AM 43.9261 -92.3772 285° West 382 440 38,000 -300 Level Minneapolis Center
01:19AM 43.9539 -92.5119 286° West 369 425 37,400 -840 Descending Minneapolis Center
01:20AM 43.9797 -92.6489 285° West 367 422 36,400 -720 Descending Minneapolis Center
01:21AM 44.0061 -92.7889 285° West 372 428 36,000 -240 Descending Minneapolis Center
01:22AM 44.0333 -92.9333 285° West 381 438 36,000  Level Minneapolis Center
01:23AM 44.0622 -93.0814 285° West 395 455 36,000  Level Minneapolis Center
01:24AM 44.0886 -93.2306 284° West 396 456 36,000  Level Minneapolis Center
01:25AM 44.1164 -93.3794 285° West 396 456 36,000  Level Minneapolis Center
01:26AM 44.1439 -93.5272 285° West 394 453 36,000  Level Minneapolis Center
01:27AM 44.1706 -93.6753 284° West 392 451 36,000  Level Minneapolis Center
01:28AM 44.1969 -93.8225 284° West 391 450 36,000  Level Minneapolis Center
01:29AM 44.2228 -93.9697 284° West 390 449 36,000  Level Minneapolis Center
01:30AM 44.2492 -94.1183 284° West 393 452 36,000  Level Minneapolis Center
01:31AM 44.2756 -94.2658 284° West 392 451 36,000  Level Minneapolis Center
01:32AM 44.3017 -94.4133 284° West 391 450 36,000  Level Minneapolis Center
01:33AM 44.3264 -94.5600 283° West 389 448 36,000  Level Minneapolis Center
01:34AM 44.3553 -94.7242 284° West 389 448 36,000  Level Minneapolis Center
01:35AM 44.3797 -94.8714 283° West 390 449 36,000  Level Minneapolis Center
01:36AM 44.4042 -95.0183 283° West 390 449 36,000  Level Minneapolis Center
01:37AM 44.4292 -95.1669 283° West 393 452 36,000  Level Minneapolis Center
01:39AM 44.4531 -95.3144 283° West 391 450 36,000  Level Minneapolis Center
01:40AM 44.4767 -95.4617 283° West 391 450 36,000  Level Minneapolis Center
01:41AM 44.5014 -95.6081 283° West 389 448 36,000  Level Minneapolis Center
01:42AM 44.5244 -95.7544 283° West 389 448 36,000  Level Minneapolis Center
01:43AM 44.5481 -95.9014 283° West 390 449 36,000  Level Minneapolis Center
01:44AM 44.5703 -96.0494 282° West 392 451 36,000  Level Minneapolis Center
01:45AM 44.5936 -96.1936 283° West 386 444 36,000  Level Minneapolis Center
01:46AM 44.6158 -96.3411 282° West 388 447 36,000  Level Minneapolis Center
01:47AM 44.6392 -96.4892 283° West 390 449 36,000 -300 Level Minneapolis Center
01:48AM 44.6603 -96.6372 281° West 390 449 35,500 -840 Descending Minneapolis Center
01:49AM 44.6828 -96.7861 282° West 391 450 34,400 -780 Descending Minneapolis Center
01:50AM 44.7042 -96.9336 282° West 389 448 34,000 -240 Descending Minneapolis Center
01:51AM 44.7256 -97.0794 282° West 385 443 34,000  Level Minneapolis Center
01:52AM 44.7481 -97.2244 282° West 382 440 34,000  Level Minneapolis Center
01:53AM 44.7700 -97.3744 282° West 389 448 34,000  Level Minneapolis Center
01:54AM 44.7908 -97.5281 281° West 397 457 34,000  Level Minneapolis Center
01:55AM 44.8139 -97.6800 282° West 398 458 34,000  Level Minneapolis Center
01:56AM 44.8397 -97.8614 281° West 396 456 34,000  Level Minneapolis Center
01:57AM 44.8600 -98.0147 281° West 397 457 34,000  Level Minneapolis Center
01:58AM 44.8811 -98.1667 281° West 397 457 34,000  Level Minneapolis Center
01:59AM 44.9022 -98.3225 281° West 402 463 34,000  Level Minneapolis Center
02:00AM 44.9239 -98.4792 281° West 409 471 34,000  Level Minneapolis Center
02:01AM 44.9444 -98.6411 280° West 416 479 34,000  Level Minneapolis Center
02:02AM 44.9653 -98.8017 280° West 417 480 34,000  Level Minneapolis Center
02:03AM 44.9906 -98.9961 280° West 418 481 34,000  Level Minneapolis Center
02:04AM 45.0108 -99.1575 280° West 419 482 34,000  Level Minneapolis Center
02:05AM 45.0314 -99.3192 280° West 419 482 34,000  Level Minneapolis Center
02:06AM 45.0511 -99.4789 280° West 417 480 34,000  Level Minneapolis Center
02:07AM 45.0717 -99.6400 280° West 417 480 34,000  Level Minneapolis Center
02:08AM 45.0922 -99.7978 281° West 415 478 34,000  Level Minneapolis Center
02:09AM 45.1125 -99.9669 280° West 423 487 34,000  Level Minneapolis Center
02:10AM 45.1336 -100.1522 279° West 425 489 34,000  Level Minneapolis Center
02:11AM 45.1525 -100.3133 279° West 421 484 34,000  Level Minneapolis Center
02:12AM 45.1714 -100.4761 279° West 420 483 34,000  Level Minneapolis Center
02:13AM 45.1897 -100.6383 279° West 419 482 34,000  Level Minneapolis Center
02:14AM 45.2069 -100.8008 279° West 418 481 34,000  Level Minneapolis Center
02:15AM 45.2258 -100.9650 279° West 420 483 34,000  Level Minneapolis Center
02:16AM 45.2447 -101.1281 279° West 421 484 34,000  Level Minneapolis Center
02:17AM 45.2628 -101.2914 279° West 420 483 34,000  Level Minneapolis Center
02:18AM 45.2811 -101.4553 279° West 421 484 34,000  Level Minneapolis Center
02:19AM 45.2978 -101.6211 278° West 423 487 34,000  Level Minneapolis Center
02:20AM 45.3156 -101.7867 279° West 424 488 34,000  Level Minneapolis Center
02:21AM 45.3317 -101.9522 278° West 423 487 34,000  Level Minneapolis Center
02:22AM 45.3492 -102.1192 279° West 426 490 34,000  Level Minneapolis Center
02:23AM 45.3658 -102.2844 278° West 426 490 34,000  Level Minneapolis Center
02:24AM 45.3819 -102.4514 278° West 426 490 34,000  Level Minneapolis Center
02:25AM 45.3983 -102.6181 278° West 426 490 34,000  Level Minneapolis Center
02:26AM 45.4139 -102.7850 278° West 426 490 34,000  Level Minneapolis Center
02:27AM 45.4292 -102.9517 278° West 426 490 34,000  Level Minneapolis Center
02:28AM 45.4436 -103.1192 277° West 426 490 34,000  Level Minneapolis Center
02:29AM 45.4586 -103.2850 277° West 425 489 34,000  Level Minneapolis Center
02:30AM 45.4703 -103.4183 277° West 424 488 34,000  Level Salt Lake Center
02:31AM 45.4856 -103.5861 277° West 427 491 34,000  Level Salt Lake Center
02:32AM 45.5000 -103.7550 277° West 429 494 34,000  Level Salt Lake Center
02:33AM 45.5136 -103.9228 277° West 429 494 34,000  Level Salt Lake Center
02:34AM 45.5275 -104.0894 277° West 426 490 34,000  Level Salt Lake Center
02:35AM 45.5417 -104.2597 277° West 430 495 34,000  Level Salt Lake Center
02:36AM 45.5558 -104.4308 277° West 433 498 34,000  Level Salt Lake Center
02:37AM 45.5711 -104.6178 277° West 432 497 34,000  Level Salt Lake Center
02:38AM 45.5836 -104.7869 276° West 431 496 34,000  Level Salt Lake Center
02:39AM 45.5953 -104.9558 276° West 429 494 34,000  Level Salt Lake Center
02:40AM 45.6086 -105.1253 276° West 432 497 34,000  Level Salt Lake Center
02:41AM 45.6208 -105.2942 276° West 430 495 34,000  Level Salt Lake Center
02:42AM 45.6333 -105.4614 276° West 428 493 34,000  Level Salt Lake Center
02:43AM 45.6447 -105.6306 276° West 427 491 34,000  Level Salt Lake Center
02:44AM 45.6558 -105.7992 275° West 428 493 34,000  Level Salt Lake Center
02:45AM 45.6678 -105.9683 276° West 429 494 34,000  Level Salt Lake Center
02:46AM 45.6781 -106.1383 275° West 430 495 34,000  Level Salt Lake Center
02:47AM 45.6889 -106.3078 275° West 430 495 34,000  Level Salt Lake Center
02:48AM 45.6953 -106.4722 273° West 422 486 34,000  Level Salt Lake Center
02:49AM 45.7064 -106.6431 275° West 426 490 34,000  Level Salt Lake Center
02:50AM 45.7178 -106.8161 275° West 435 501 34,000  Level Salt Lake Center
02:51AM 45.7294 -106.9886 276° West 437 503 34,000  Level Salt Lake Center
02:52AM 45.7386 -107.1614 274° West 438 504 34,000  Level Salt Lake Center
02:53AM 45.7475 -107.3294 274° West 432 497 34,000  Level Salt Lake Center
02:54AM 45.7572 -107.5019 275° West 436 502 34,000  Level Salt Lake Center
02:55AM 45.7656 -107.6739 274° West 438 504 34,000  Level Salt Lake Center
02:56AM 45.7744 -107.8456 274° West 435 501 34,000  Level Salt Lake Center
02:57AM 45.7822 -108.0189 274° West 439 505 34,000  Level Salt Lake Center
02:58AM 45.7917 -108.2244 274° West 435 501 34,000  Level Salt Lake Center
02:59AM 45.7994 -108.3964 274° West 436 502 34,000  Level Salt Lake Center
03:00AM 45.8089 -108.5750 274° West 454 522 34,000 -420 Level Salt Lake Center
03:01AM 45.8092 -108.7528 270° West 452 520 33,200 -1,380 Descending Salt Lake Center
03:02AM 45.8092 -108.9272 270° West 442 509 31,300 -1,920 Descending Salt Lake Center
03:03AM 45.8083 -109.0983 270° West 434 499 29,400 -1,920 Descending Salt Lake Center
03:04AM 45.8078 -109.2678 270° West 428 493 27,500 -1,920 Descending Salt Lake Center
03:05AM 45.8064 -109.4369 269° West 427 491 25,600 -1,920 Descending Salt Lake Center
03:06AM 45.8050 -109.6022 269° West 419 482 23,700 -1,920 Descending Salt Lake Center
03:07AM 45.8031 -109.7644 269° West 410 472 21,800 -1,920 Descending Salt Lake Center
03:08AM 45.8008 -109.9289 269° West 413 475 19,900 -1,920 Descending Salt Lake Center
03:09AM 45.7992 -110.0903 269° West 409 471 18,000 -1,620 Descending Salt Lake Center
03:10AM 45.7964 -110.2489 269° West 403 464 16,700 -1,380 Descending Salt Lake Center
03:11AM 45.7931 -110.3989 268° West 386 444 15,300 -1,440 Descending Salt Lake Center
03:12AM 45.7908 -110.5444 269° West 372 428 13,900 -1,440 Descending Salt Lake Center
03:13AM 45.7889 -110.6847 269° West 359 413 12,500 -960 Descending Salt Lake Center
03:14AM 45.8189 -110.8047 290° West 346 398 12,000 -300 Descending Salt Lake Center
03:15AM 45.8653 -110.9239 299° West 342 394 12,000  Level Salt Lake Center
03:16AM 45.9186 -111.0461 302° West 352 405 12,000  Level Salt Lake Center
03:17AM 45.9733 -111.1703 302° West 362 417 12,000 -60 Level Salt Lake Center
03:18AM 46.0197 -111.3208 294° West 361 415 11,900 -120 Descending Salt Lake Center
03:20AM 45.8812 -111.2271 155° Southeast  Level FlightAware Approximate
03:27AM 45.7776 -111.1520 177° South  Level Estimated
03:28AM 45.7776 -111.1520 177° South  Level Estimated
03:29AM 45.7776 -111.1520 177° South  Level Estimated
03:30AM 45.7776 -111.1520 177° South  Level Estimated
03:31AM 45.7776 -111.1520 177° South  Level Estimated
03:32AM 45.7776 -111.1520 177° South  Level Estimated